createdAt,value
2023-02-24T00:01:24.995Z,98087.13
2023-02-24T00:05:00.173Z,98078.31
2023-02-24T00:08:23.098Z,98080.97
2023-02-24T00:11:59.143Z,98069.03
2023-02-24T00:15:21.012Z,98062.13
2023-02-24T00:18:54.189Z,98062.97
2023-02-24T00:22:16.076Z,98059.25
2023-02-24T00:25:38.013Z,98062.59
2023-02-24T00:29:03.266Z,98052.41
2023-02-24T00:32:27.665Z,98051.28
2023-02-24T00:36:09.991Z,98041.75
2023-02-24T00:39:41.380Z,98029.47
2023-02-24T00:43:05.263Z,98041.28
2023-02-24T00:46:31.232Z,98040.38
2023-02-24T00:49:55.646Z,98024.38
2023-02-24T00:53:18.295Z,98040.16
2023-02-24T00:56:41.491Z,98034.63
2023-02-24T01:00:11.439Z,98033.03
2023-02-24T01:03:33.723Z,98031.09
2023-02-24T01:07:01.682Z,98023.97
2023-02-24T01:10:26.894Z,98019.16
2023-02-24T01:13:49.660Z,98019.44
2023-02-24T01:17:15.750Z,98020.88
2023-02-24T01:20:44.261Z,98018.75
2023-02-24T01:24:07.393Z,98006.06
2023-02-24T01:27:31.662Z,98021.06
2023-02-24T01:30:55.284Z,98006.31
2023-02-24T01:34:22.614Z,97999.19
2023-02-24T01:37:48.192Z,98012.38
2023-02-24T01:41:22.310Z,97996.66
2023-02-24T01:45:13.181Z,98002.78
2023-02-24T01:48:35.338Z,97981.28
2023-02-24T01:52:35.751Z,97985.75
2023-02-24T01:56:03.349Z,97978.03
2023-02-24T01:59:30.882Z,97967.28
2023-02-24T02:03:33.423Z,97966.56
2023-02-24T02:07:00.295Z,97968.75
2023-02-24T02:10:28.656Z,97953.50
2023-02-24T02:13:55.240Z,97966.34
2023-02-24T02:17:38.159Z,97958.22
2023-02-24T02:21:29.876Z,97962.47
2023-02-24T02:25:20.716Z,97958.53
2023-02-24T02:28:56.919Z,97958.00
2023-02-24T02:33:02.088Z,97951.06
2023-02-24T02:37:37.457Z,97946.00
2023-02-24T02:41:13.445Z,97937.75
2023-02-24T02:44:59.592Z,97936.09
2023-02-24T02:48:48.403Z,97940.44
2023-02-24T02:53:03.925Z,97941.59
2023-02-24T02:56:37.657Z,97932.75
2023-02-24T03:00:13.186Z,97921.38
2023-02-24T03:03:42.664Z,97920.31
2023-02-24T03:07:08.682Z,97917.72
2023-02-24T03:10:34.258Z,97913.25
2023-02-24T03:13:58.302Z,97921.72
2023-02-24T03:17:28.657Z,97916.50
2023-02-24T03:21:16.147Z,97922.09
2023-02-24T03:24:42.274Z,97920.75
2023-02-24T03:28:24.091Z,97909.81
2023-02-24T03:32:09.925Z,97911.44
2023-02-24T03:35:39.883Z,97911.38
2023-02-24T03:39:04.431Z,97904.56
2023-02-24T03:42:33.865Z,97906.59
2023-02-24T03:46:01.312Z,97898.72
2023-02-24T03:49:27.099Z,97896.13
2023-02-24T03:53:01.608Z,97904.50
2023-02-24T03:57:19.740Z,97891.78
2023-02-24T04:00:58.355Z,97870.47
2023-02-24T04:04:35.071Z,97874.06
2023-02-24T04:08:24.628Z,97875.66
2023-02-24T04:12:18.818Z,97867.81
2023-02-24T04:15:53.067Z,97869.34
2023-02-24T04:19:21.446Z,97865.47
2023-02-24T04:22:54.672Z,97859.25
2023-02-24T04:26:19.634Z,97862.13
2023-02-24T04:29:52.294Z,97851.78
2023-02-24T04:33:25.557Z,97851.59
2023-02-24T04:36:49.913Z,97844.41
2023-02-24T04:40:17.619Z,97843.16
2023-02-24T04:43:40.850Z,97844.28
2023-02-24T04:47:03.931Z,97836.50
2023-02-24T04:50:26.083Z,97835.28
2023-02-24T04:53:49.671Z,97829.44
2023-02-24T04:57:12.673Z,97824.59
2023-02-24T05:00:35.747Z,97809.72
2023-02-24T05:04:00.114Z,97821.47
2023-02-24T05:07:22.469Z,97816.16
2023-02-24T05:10:47.272Z,97801.63
2023-02-24T05:14:15.997Z,97797.56
2023-02-24T05:17:52.560Z,97806.84
2023-02-24T05:21:36.280Z,97802.25
2023-02-24T05:24:58.318Z,97790.72
2023-02-24T05:28:26.139Z,97792.72
2023-02-24T05:31:50.950Z,97790.91
2023-02-24T05:35:14.979Z,97793.69
2023-02-24T05:38:38.069Z,97786.41
2023-02-24T05:42:07.204Z,97787.72
2023-02-24T05:45:43.175Z,97774.72
2023-02-24T05:49:16.346Z,97771.31
2023-02-24T05:52:39.330Z,97770.56
2023-02-24T05:56:05.740Z,97769.00
2023-02-24T05:59:32.665Z,97766.16
2023-02-24T06:03:07.524Z,97773.63
2023-02-24T06:06:29.470Z,97757.53
2023-02-24T06:09:57.755Z,97775.53
2023-02-24T06:13:20.652Z,97772.97
2023-02-24T06:16:48.434Z,97775.00
2023-02-24T06:20:15.234Z,97770.06
2023-02-24T06:23:41.381Z,97761.38
2023-02-24T06:27:17.437Z,97763.03
2023-02-24T06:30:46.716Z,97760.25
2023-02-24T06:34:13.064Z,97752.59
2023-02-24T06:37:35.764Z,97770.13
2023-02-24T06:41:10.752Z,97767.72
2023-02-24T06:44:41.134Z,97759.91
2023-02-24T06:48:11.930Z,97756.91
2023-02-24T06:51:35.915Z,97763.25
2023-02-24T06:54:57.764Z,97766.25
2023-02-24T06:58:21.005Z,97754.25
2023-02-24T07:01:45.318Z,97768.25
2023-02-24T07:05:14.474Z,97767.66
2023-02-24T07:08:46.094Z,97764.59
2023-02-24T07:12:11.041Z,97773.59
2023-02-24T07:15:37.053Z,97768.88
2023-02-24T07:19:02.688Z,97765.75
2023-02-24T07:22:31.763Z,97762.53
2023-02-24T07:25:58.421Z,97759.19
2023-02-24T07:29:20.266Z,97753.41
2023-02-24T07:32:42.496Z,97751.91
2023-02-24T07:36:08.583Z,97743.78
2023-02-24T07:39:34.891Z,97746.50
2023-02-24T07:42:57.200Z,97741.97
2023-02-24T07:46:26.365Z,97739.91
2023-02-24T07:49:49.588Z,97745.28
2023-02-24T07:53:12.088Z,97734.06
2023-02-24T07:56:46.003Z,97748.50
2023-02-24T08:00:18.885Z,97748.25
2023-02-24T08:03:45.279Z,97737.34
2023-02-24T08:07:14.239Z,97745.81
2023-02-24T08:10:37.308Z,97744.59
2023-02-24T08:13:59.215Z,97757.25
2023-02-24T08:17:26.972Z,97750.81
2023-02-24T08:20:52.292Z,97745.53
2023-02-24T08:24:25.332Z,97736.59
2023-02-24T08:28:12.761Z,97734.81
2023-02-24T08:31:41.001Z,97736.59
2023-02-24T08:35:16.640Z,97739.34
2023-02-24T08:38:42.083Z,97737.44
2023-02-24T08:42:04.783Z,97736.28
2023-02-24T08:45:33.547Z,97738.91
2023-02-24T08:49:01.080Z,97736.44
2023-02-24T08:52:29.803Z,97730.00
2023-02-24T08:55:53.522Z,97722.59
2023-02-24T08:59:37.235Z,97725.09
2023-02-24T09:03:08.158Z,97731.44
2023-02-24T09:07:10.726Z,97709.44
2023-02-24T09:10:33.260Z,97704.47
2023-02-24T09:13:58.122Z,97701.13
2023-02-24T09:17:45.777Z,97707.22
2023-02-24T09:21:33.500Z,97701.63
2023-02-24T09:25:15.355Z,97694.19
2023-02-24T09:28:48.526Z,97685.53
2023-02-24T09:32:14.688Z,97681.56
2023-02-24T09:36:10.211Z,97679.31
2023-02-24T09:39:55.786Z,97679.38
2023-02-24T09:43:30.378Z,97676.63
2023-02-24T09:47:08.695Z,97667.66
2023-02-24T09:51:03.593Z,97661.34
2023-02-24T09:54:35.325Z,97658.72
2023-02-24T09:58:16.957Z,97643.63
2023-02-24T10:02:34.352Z,97641.22
2023-02-24T10:06:12.262Z,97639.06
2023-02-24T10:09:50.282Z,97630.72
2023-02-24T10:13:32.638Z,97625.03
2023-02-24T10:17:31.803Z,97623.66
2023-02-24T10:22:00.170Z,97624.50
2023-02-24T10:25:54.002Z,97602.59
2023-02-24T10:29:36.227Z,97612.41
2023-02-24T10:33:05.942Z,97604.09
2023-02-24T10:36:35.151Z,97591.31
2023-02-24T10:40:09.873Z,97602.47
2023-02-24T10:43:45.300Z,97590.97
2023-02-24T10:47:12.949Z,97579.81
2023-02-24T10:50:56.034Z,97579.34
2023-02-24T10:54:48.319Z,97569.84
2023-02-24T10:58:38.156Z,97562.31
2023-02-24T11:02:29.423Z,97557.25
2023-02-24T11:06:42.217Z,97559.63
2023-02-24T11:10:11.877Z,97545.50
2023-02-24T11:13:55.203Z,97545.81
2023-02-24T11:17:29.161Z,97539.31
2023-02-24T11:20:58.245Z,97532.28
2023-02-24T11:24:22.198Z,97531.03
2023-02-24T11:27:51.817Z,97523.56
2023-02-24T11:31:33.828Z,97520.44
2023-02-24T11:35:22.411Z,97514.97
2023-02-24T11:39:22.547Z,97505.84
2023-02-24T11:42:57.293Z,97496.34
2023-02-24T11:46:54.295Z,97488.53
2023-02-24T11:50:39.756Z,97492.97
2023-02-24T11:54:11.097Z,97483.84
2023-02-24T11:57:43.482Z,97480.25
2023-02-24T12:01:44.320Z,97472.25
2023-02-24T12:05:19.444Z,97467.63
2023-02-24T12:08:50.520Z,97449.78
2023-02-24T12:12:44.498Z,97451.97
2023-02-24T12:16:28.113Z,97438.91
2023-02-24T12:20:34.389Z,97431.75
2023-02-24T12:23:59.045Z,97422.78
2023-02-24T12:27:33.151Z,97424.25
2023-02-24T12:31:32.678Z,97410.13
2023-02-24T12:35:41.882Z,97411.00
2023-02-24T12:39:15.808Z,97395.72
2023-02-24T12:43:06.136Z,97377.66
2023-02-24T12:46:38.286Z,97387.88
2023-02-24T12:50:45.520Z,97373.13
2023-02-24T12:54:19.944Z,97375.66
2023-02-24T12:58:20.664Z,97360.84
2023-02-24T13:02:13.349Z,97350.72
2023-02-24T13:06:16.471Z,97345.00
2023-02-24T13:09:47.155Z,97347.81
2023-02-24T13:13:23.390Z,97342.78
2023-02-24T13:16:45.377Z,97332.06
2023-02-24T13:20:12.193Z,97341.34
2023-02-24T13:23:41.692Z,97339.75
2023-02-24T13:27:23.918Z,97343.00
2023-02-24T13:30:47.225Z,97338.91
2023-02-24T13:34:41.691Z,97347.94
2023-02-24T13:38:31.448Z,97345.38
2023-02-24T13:42:20.177Z,97347.81
2023-02-24T13:46:01.829Z,97332.03
2023-02-24T13:50:14.871Z,97343.28
2023-02-24T13:54:27.222Z,97340.81
2023-02-24T13:58:17.631Z,97343.09
2023-02-24T14:02:01.896Z,97343.03
2023-02-24T14:05:37.129Z,97347.06
2023-02-24T14:09:05.679Z,97352.09
2023-02-24T14:12:37.144Z,97330.19
2023-02-24T14:16:05.003Z,97327.63
2023-02-24T14:19:29.196Z,97325.59
2023-02-24T14:22:55.212Z,97316.38
2023-02-24T14:26:20.379Z,97313.03
2023-02-24T14:29:45.387Z,97296.72
2023-02-24T14:33:36.117Z,97299.66
2023-02-24T14:37:03.008Z,97296.00
2023-02-24T14:40:26.008Z,97297.47
2023-02-24T14:43:53.467Z,97284.81
2023-02-24T14:47:19.367Z,97285.13
2023-02-24T14:50:41.453Z,97272.78
2023-02-24T14:54:15.950Z,97270.31
2023-02-24T14:58:05.907Z,97277.13
2023-02-24T15:01:36.674Z,97266.47
2023-02-24T15:05:00.112Z,97264.13
2023-02-24T15:08:43.007Z,97263.28
2023-02-24T15:12:18.533Z,97260.22
2023-02-24T15:15:45.847Z,97242.13
2023-02-24T15:19:47.030Z,97255.00
2023-02-24T15:23:32.012Z,97243.66
2023-02-24T15:27:02.980Z,97243.09
2023-02-24T15:31:01.215Z,97240.63
2023-02-24T15:34:34.952Z,97242.00
2023-02-24T15:37:57.899Z,97234.84
2023-02-24T15:41:22.650Z,97227.53
2023-02-24T15:45:02.743Z,97222.25
2023-02-24T15:48:31.088Z,97220.94
2023-02-24T15:51:59.509Z,97218.53
2023-02-24T15:55:28.680Z,97225.53
2023-02-24T15:58:53.638Z,97228.03
2023-02-24T16:02:20.279Z,97226.84
2023-02-24T16:05:42.109Z,97218.03
2023-02-24T16:09:25.935Z,97217.56
2023-02-24T16:12:57.876Z,97219.03
2023-02-24T16:16:21.469Z,97203.94
2023-02-24T16:19:48.688Z,97194.63
2023-02-24T16:23:23.882Z,97211.53
2023-02-24T16:26:47.936Z,97203.59
2023-02-24T16:30:21.434Z,97208.34
2023-02-24T16:33:55.071Z,97214.00
2023-02-24T16:37:23.408Z,97221.91
2023-02-24T16:40:49.083Z,97217.94
2023-02-24T16:44:12.899Z,97215.91
2023-02-24T16:47:37.354Z,97220.97
2023-02-24T16:50:59.197Z,97220.41
2023-02-24T16:54:30.027Z,97229.13
2023-02-24T16:57:56.936Z,97223.63
2023-02-24T17:01:21.433Z,97235.88
2023-02-24T17:04:43.507Z,97219.69
2023-02-24T17:08:05.399Z,97229.09
2023-02-24T17:11:29.986Z,97238.44
2023-02-24T17:14:59.448Z,97243.44
2023-02-24T17:18:26.633Z,97251.00
2023-02-24T17:21:49.652Z,97243.75
2023-02-24T17:25:19.998Z,97235.06
2023-02-24T17:28:42.330Z,97239.56
2023-02-24T17:32:05.642Z,97250.34
2023-02-24T17:35:28.934Z,97234.34
2023-02-24T17:38:50.824Z,97244.84
2023-02-24T17:42:12.723Z,97250.75
2023-02-24T17:45:35.398Z,97248.47
2023-02-24T17:49:00.653Z,97251.81
2023-02-24T17:52:23.706Z,97260.53
2023-02-24T17:56:01.471Z,97263.31
2023-02-24T17:59:25.083Z,97265.38
2023-02-24T18:02:47.006Z,97269.72
2023-02-24T18:06:15.978Z,97271.03
2023-02-24T18:09:38.876Z,97278.00
2023-02-24T18:13:00.784Z,97293.09
2023-02-24T18:16:22.997Z,97277.72
2023-02-24T18:19:46.134Z,97273.31
2023-02-24T18:23:07.958Z,97275.78
2023-02-24T18:26:31.162Z,97280.00
2023-02-24T18:29:54.318Z,97275.69
2023-02-24T18:33:16.573Z,97281.13
2023-02-24T18:36:38.752Z,97292.88
2023-02-24T18:40:00.635Z,97282.69
2023-02-24T18:43:22.495Z,97293.22
2023-02-24T18:46:44.550Z,97297.53
2023-02-24T18:50:08.752Z,97300.19
2023-02-24T18:53:41.663Z,97307.09
2023-02-24T18:57:03.575Z,97312.28
2023-02-24T19:00:47.221Z,97304.06
2023-02-24T19:04:13.635Z,97305.31
2023-02-24T19:07:37.641Z,97297.47
2023-02-24T19:10:59.484Z,97303.59
2023-02-24T19:14:22.462Z,97311.06
2023-02-24T19:17:45.475Z,97311.47
2023-02-24T19:21:13.618Z,97313.31
2023-02-24T19:24:35.467Z,97313.88
2023-02-24T19:27:57.339Z,97331.34
2023-02-24T19:31:26.941Z,97305.53
2023-02-24T19:34:49.262Z,97295.03
2023-02-24T19:38:18.514Z,97305.13
2023-02-24T19:41:41.591Z,97307.63
2023-02-24T19:45:03.700Z,97309.75
2023-02-24T19:48:26.606Z,97327.78
2023-02-24T19:51:48.620Z,97326.34
2023-02-24T19:55:16.697Z,97322.66
2023-02-24T19:58:41.813Z,97321.66
2023-02-24T20:02:03.809Z,97328.94
2023-02-24T20:05:25.703Z,97338.72
2023-02-24T20:08:56.120Z,97330.50
2023-02-24T20:12:17.978Z,97336.25
2023-02-24T20:15:39.826Z,97336.63
2023-02-24T20:19:03.703Z,97340.72
2023-02-24T20:22:26.816Z,97334.69
2023-02-24T20:25:53.593Z,97324.25
2023-02-24T20:29:18.570Z,97325.97
2023-02-24T20:32:40.458Z,97319.53
2023-02-24T20:36:22.252Z,97331.75
2023-02-24T20:39:44.707Z,97332.09
2023-02-24T20:43:09.460Z,97335.72
2023-02-24T20:46:33.022Z,97340.41
2023-02-24T20:49:54.900Z,97346.47
2023-02-24T20:53:17.216Z,97361.81
2023-02-24T20:56:42.159Z,97372.16
2023-02-24T21:00:07.711Z,97366.16
2023-02-24T21:03:29.539Z,97364.75
2023-02-24T21:06:51.989Z,97354.94
2023-02-24T21:10:14.970Z,97353.50
2023-02-24T21:13:42.116Z,97347.03
2023-02-24T21:17:03.943Z,97345.91
2023-02-24T21:20:25.820Z,97331.19
2023-02-24T21:23:48.475Z,97340.59
2023-02-24T21:27:12.288Z,97340.84
2023-02-24T21:30:34.210Z,97341.97
2023-02-24T21:33:56.634Z,97343.69
2023-02-24T21:37:20.542Z,97349.22
2023-02-24T21:40:45.059Z,97356.63
2023-02-24T21:44:07.544Z,97349.13
2023-02-24T21:47:32.307Z,97343.84
2023-02-24T21:51:09.450Z,97366.91
2023-02-24T21:54:32.917Z,97357.38
2023-02-24T21:57:54.837Z,97364.59
2023-02-24T22:01:29.638Z,97370.94
2023-02-24T22:04:52.611Z,97371.16
2023-02-24T22:08:15.859Z,97379.84
2023-02-24T22:11:47.433Z,97376.84
2023-02-24T22:15:11.540Z,97378.06
2023-02-24T22:18:37.577Z,97377.09
2023-02-24T22:21:59.899Z,97388.16
2023-02-24T22:25:21.860Z,97399.19
2023-02-24T22:28:46.818Z,97405.91
2023-02-24T22:32:09.132Z,97403.81
2023-02-24T22:35:37.148Z,97413.41
2023-02-24T22:39:01.406Z,97405.50
2023-02-24T22:42:29.254Z,97416.59
2023-02-24T22:46:02.326Z,97399.50
2023-02-24T22:49:25.688Z,97405.91
2023-02-24T22:52:48.935Z,97398.75
2023-02-24T22:56:13.571Z,97401.16
2023-02-24T22:59:43.508Z,97414.69
2023-02-24T23:03:05.417Z,97425.06
2023-02-24T23:06:29.064Z,97411.44
2023-02-24T23:09:54.137Z,97416.53
2023-02-24T23:13:17.204Z,97421.19
2023-02-24T23:16:45.146Z,97421.56
2023-02-24T23:20:14.174Z,97432.97
2023-02-24T23:23:37.541Z,97436.03
2023-02-24T23:27:00.603Z,97443.44
2023-02-24T23:30:22.758Z,97442.16
2023-02-24T23:33:45.860Z,97433.63
2023-02-24T23:37:11.857Z,97438.03
2023-02-24T23:40:48.096Z,97438.09
2023-02-24T23:44:13.368Z,97440.78
2023-02-24T23:47:35.880Z,97436.16
2023-02-24T23:50:57.801Z,97445.88
2023-02-24T23:54:20.269Z,97445.59
2023-02-24T23:57:42.268Z,97437.28
